Fort Pike — WAA9418 — position and weather

sailwx.info

Track history (hours):
 
Tides and Currents Weather Stations Pressure Air Temp Water Temp Dewpoint Dewpoint Depression Visibility Wind Speed Wind Dir Waves Ship Positions

Fort Pike

Owner: Salisbury Towing Corporation, Chesapeak, VA. More information available from US FCC via Universal Licensing System and Coast Guard Vessel Documentation Center.

Last reported at 2018-Feb-10 05:21 UTC. Time now 2018-Feb-24 10:20 UTC.
Position N 36°50' W 076°17'.
Warning: this ship's position is 14 days out of date.

Length 18 m; draft 2.5 m.

Type: Tug. MMSI: 366948310.

Date/timePositionNaut miles runAvg speedWind from/ knotsBaromVisibWave heightAir tempDewpointWater temp
2018-Feb-10 05:21N 36°50' W 076°17'1 1.5
2018-Feb-10 05:00N 36°50' W 076°17'1 1.6
2018-Feb-10 04:30N 36°50' W 076°16'1 1.1
2018-Feb-10 04:00N 36°50' W 076°17'3 5.5
2018-Feb-10 03:29N 36°52' W 076°20'3 5.8
2018-Feb-10 03:00N 36°55' W 076°20'3 5.6
2018-Feb-10 02:29N 36°58' W 076°20'2 4.9
2018-Feb-10 01:59N 36°60' W 076°18'3 5.2
2018-Feb-10 01:29N 37°01' W 076°15'3 5.0
2018-Feb-10 00:58N 37°03' W 076°13'3 5.6
2018-Feb-10 00:27N 37°05' W 076°12'102 6.0
2018-Feb-09 07:30N 38°47' W 076°27'3 6.1
2018-Feb-09 07:00N 38°50' W 076°27'3 6.1
2018-Feb-09 06:31N 38°53' W 076°26'30 6.0
2018-Feb-09 01:30N 39°21' W 076°10'7 6.8
2018-Feb-09 00:30N 39°24' W 076°03'8 5.1
2018-Feb-08 23:00N 39°32' W 076°05'3 1.0
2018-Feb-08 20:30N 39°34' W 076°06'0 0.1
2018-Feb-08 19:00N 39°34' W 076°06'0 0.1
2018-Feb-08 18:00N 39°34' W 076°06'25 5.5
2018-Feb-08 13:30N 39°13' W 076°21'11 5.5
2018-Feb-08 11:30N 39°16' W 076°35'0 0.0
2018-Feb-08 09:30N 39°16' W 076°35'0 0.0
2018-Feb-08 09:00N 39°16' W 076°35'0 0.0
2018-Feb-08 07:00N 39°16' W 076°35'0 0.0
2018-Feb-08 04:00N 39°16' W 076°35'0 0.0
2018-Feb-08 03:00N 39°16' W 076°35'0 0.0
2018-Feb-08 01:30N 39°16' W 076°35'0 0.0
2018-Feb-08 01:00N 39°16' W 076°35'0 0.0
2018-Feb-08 00:30N 39°16' W 076°35'0 0.0
2018-Feb-08 00:00N 39°16' W 076°35'0 0.0
2018-Feb-07 23:30N 39°16' W 076°35'0 0.0
2018-Feb-07 23:00N 39°16' W 076°35'0 0.0
2018-Feb-07 22:30N 39°16' W 076°35'0 0.1
2018-Feb-07 21:58N 39°15' W 076°35'1 1.8
2018-Feb-07 21:31N 39°15' W 076°36'30 0.8
2018-Feb-06 07:24N 38°46' W 076°28'3 6.3
2018-Feb-06 07:00N 38°48' W 076°27'7 6.5
2018-Feb-06 05:59N 38°54' W 076°25'5 6.5
2018-Feb-06 05:14N 38°59' W 076°23'18 5.7
2018-Feb-06 02:02N 39°16' W 076°14'0 6.4
2018-Feb-06 01:58N 39°16' W 076°14'3 6.1
2018-Feb-06 01:24N 39°19' W 076°12'3 6.3
2018-Feb-06 00:58N 39°21' W 076°09'3 6.6
2018-Feb-06 00:30N 39°23' W 076°06'3 6.4
2018-Feb-06 00:00N 39°24' W 076°03'3 5.8
2018-Feb-05 23:30N 39°27' W 076°02'3 6.0
2018-Feb-05 23:00N 39°30' W 076°05'3 6.3
2018-Feb-05 22:30N 39°33' W 076°05'2 3.6
2018-Feb-05 22:00N 39°34' W 076°06'0 0.3
2018-Feb-05 21:30N 39°34' W 076°06'0 0.0
2018-Feb-05 21:00N 39°34' W 076°06'0 0.0
2018-Feb-05 20:00N 39°34' W 076°06'0 0.0
2018-Feb-05 19:30N 39°34' W 076°06'0 0.0
2018-Feb-05 19:00N 39°34' W 076°06'0 0.0
2018-Feb-05 18:30N 39°34' W 076°06'0 0.0
2018-Feb-05 18:00N 39°34' W 076°06'0 0.0
2018-Feb-05 17:30N 39°34' W 076°06'0 0.1
2018-Feb-05 17:00N 39°34' W 076°06'0 0.0
2018-Feb-05 16:30N 39°34' W 076°06'0 0.0
2018-Feb-05 16:00N 39°34' W 076°06'0 0.0
2018-Feb-05 15:30N 39°34' W 076°06'0 0.0
2018-Feb-05 15:00N 39°34' W 076°06'0 0.0
2018-Feb-05 14:30N 39°34' W 076°06'0 0.0
2018-Feb-05 12:30N 39°34' W 076°06'0 0.0
2018-Feb-05 12:00N 39°34' W 076°06'0 0.0
2018-Feb-05 11:30N 39°34' W 076°06'0 0.0
2018-Feb-05 10:30N 39°34' W 076°06'0 0.0
2018-Feb-05 10:00N 39°34' W 076°06'0 0.0
2018-Feb-05 09:29N 39°34' W 076°06'0 0.0
2018-Feb-05 09:00N 39°34' W 076°06'0 0.0
2018-Feb-05 08:30N 39°34' W 076°06'0 0.0
2018-Feb-05 08:00N 39°34' W 076°06'0 0.0
2018-Feb-05 07:30N 39°34' W 076°06'0 0.0
2018-Feb-05 07:00N 39°34' W 076°06'0 0.0
2018-Feb-05 06:30N 39°34' W 076°06'0 0.0
2018-Feb-05 05:30N 39°34' W 076°06'0 0.0
2018-Feb-05 05:00N 39°34' W 076°06'0 0.0
2018-Feb-05 04:30N 39°34' W 076°06'0 0.0
2018-Feb-05 04:00N 39°34' W 076°06'2 3.9
2018-Feb-05 03:30N 39°33' W 076°05'0 0.5
2018-Feb-05 03:00N 39°33' W 076°04'0 0.0
2018-Feb-05 02:30N 39°33' W 076°04'2 3.5
2018-Feb-05 01:59N 39°31' W 076°05'3 5.4
2018-Feb-05 01:30N 39°29' W 076°04'3 5.8
2018-Feb-05 00:55N 39°25' W 076°03'3 6.0
2018-Feb-05 00:30N 39°23' W 076°05'17 5.4
2018-Feb-04 21:17N 39°13' W 076°22'1 5.1
2018-Feb-04 21:00N 39°12' W 076°24'5 5.2
2018-Feb-04 20:00N 39°12' W 076°30'3 6.3
2018-Feb-04 19:29N 39°14' W 076°33'2 4.2
2018-Feb-04 19:00N 39°16' W 076°35'2 3.1
2018-Feb-04 18:30N 39°15' W 076°34'4 7.5
2018-Feb-04 18:00N 39°12' W 076°30'4 7.4
2018-Feb-04 17:30N 39°10' W 076°26'14 6.9
2018-Feb-04 15:30N 38°57' W 076°23'4 7.6
2018-Feb-04 15:00N 38°53' W 076°24'4 7.7
2018-Feb-04 14:30N 38°49' W 076°25'11 7.2
2018-Feb-04 12:55N 38°38' W 076°20'9 1.9
2018-Feb-04 08:17N 38°46' W 076°26'2 7.2
2018-Feb-04 08:01N 38°48' W 076°26'4 7.2
2018-Feb-04 07:30N 38°52' W 076°25'4 7.4
2018-Feb-04 07:00N 38°55' W 076°25'4 7.6
2018-Feb-04 06:25N 38°59' W 076°23'4 9.1
2018-Feb-04 06:01N 39°03' W 076°23'5 9.2
2018-Feb-04 05:30N 39°08' W 076°24'4 8.8
2018-Feb-04 05:00N 39°11' W 076°28'5 8.9
2018-Feb-04 04:30N 39°14' W 076°32'3 5.5
2018-Feb-04 04:00N 39°15' W 076°35'4 7.8
2018-Feb-04 03:30N 39°13' W 076°31'4 7.9
2018-Feb-04 03:00N 39°11' W 076°27'4 8.0
2018-Feb-04 02:30N 39°08' W 076°24'4 8.6
2018-Feb-04 02:00N 39°03' W 076°23'5 8.8
2018-Feb-04 01:29N 38°59' W 076°23'5 9.4
2018-Feb-04 01:00N 38°54' W 076°24'5 9.2
2018-Feb-04 00:30N 38°50' W 076°25'4 0.4
2018-Feb-03 14:27N 38°45' W 076°25'3 6.8
2018-Feb-03 14:00N 38°48' W 076°26'3 6.5
2018-Feb-03 13:30N 38°52' W 076°25'3 6.3
2018-Feb-03 13:00N 38°55' W 076°25'4 6.1
2018-Feb-03 12:16N 38°59' W 076°23'16 6.0
2018-Feb-03 09:35N 39°14' W 076°15'2 7.1
2018-Feb-03 09:17N 39°16' W 076°14'2 7.2
2018-Feb-03 08:57N 39°18' W 076°13'3 7.3
2018-Feb-03 08:30N 39°21' W 076°10'4 7.4
2018-Feb-03 08:00N 39°23' W 076°06'7 4.8
2018-Feb-03 06:30N 39°30' W 076°05'3 6.3
2018-Feb-03 06:00N 39°33' W 076°05'1 3.0
2018-Feb-03 05:30N 39°34' W 076°06'0 0.0
2018-Feb-03 05:00N 39°34' W 076°06'0 0.1
2018-Feb-03 04:00N 39°34' W 076°06'2 4.0
2018-Feb-03 03:31N 39°33' W 076°05'10 6.4
2018-Feb-03 02:00N 39°23' W 076°05'16 8.1
2018-Feb-03 00:03N 39°13' W 076°21'0 8.0
2018-Feb-03 00:00N 39°13' W 076°21'4 7.9
2018-Feb-02 23:30N 39°11' W 076°25'4 7.4
2018-Feb-02 23:00N 39°12' W 076°30'4 7.9
2018-Feb-02 22:30N 39°15' W 076°34'1 2.7
2018-Feb-02 22:00N 39°16' W 076°35'0 0.0
2018-Feb-02 21:30N 39°16' W 076°35'0 0.0
2018-Feb-02 21:00N 39°16' W 076°35'0 0.0
2018-Feb-02 20:31N 39°16' W 076°35'0 0.0
2018-Feb-02 20:00N 39°16' W 076°35'0 0.0
2018-Feb-02 19:00N 39°16' W 076°35'0 0.0
2018-Feb-02 18:30N 39°16' W 076°35'0 0.0
2018-Feb-02 18:00N 39°16' W 076°35'0 0.0
2018-Feb-02 17:30N 39°16' W 076°35'0 0.0
2018-Feb-02 17:00N 39°16' W 076°35'0 0.1
2018-Feb-02 16:30N 39°16' W 076°35'0 0.0
2018-Feb-02 15:30N 39°16' W 076°35'0 0.0
2018-Feb-02 14:30N 39°16' W 076°35'2 4.4
2018-Feb-02 13:59N 39°14' W 076°33'1 0.4
2018-Feb-02 11:52N 39°14' W 076°34'1 4.2
2018-Feb-02 11:30N 39°15' W 076°34'1 1.9
2018-Feb-02 11:00N 39°16' W 076°35'0 0.0
2018-Feb-02 10:30N 39°16' W 076°35'0 0.0
2018-Feb-02 10:00N 39°16' W 076°35'0 0.0
2018-Feb-02 09:29N 39°16' W 076°35'0 0.1
2018-Feb-02 09:00N 39°16' W 076°35'0 0.0
2018-Feb-02 08:30N 39°16' W 076°35'0 0.0
2018-Feb-02 08:00N 39°16' W 076°35'0 0.0
2018-Feb-02 07:30N 39°16' W 076°35'2 3.9
2018-Feb-02 06:57N 39°14' W 076°33'3 7.7
2018-Feb-02 06:30N 39°12' W 076°30'4 7.5
2018-Feb-02 06:00N 39°10' W 076°26'3 6.7
2018-Feb-02 05:29N 39°07' W 076°24'3 6.6
2018-Feb-02 04:58N 39°03' W 076°23'3 6.2
2018-Feb-02 04:30N 39°00' W 076°22'3 6.6
2018-Feb-02 04:00N 38°57' W 076°23'4 7.3
2018-Feb-02 03:31N 38°54' W 076°24'4 7.6
2018-Feb-02 03:00N 38°50' W 076°26'4 7.8
2018-Feb-02 02:28N 38°46' W 076°27'41 1.4
2018-Jan-31 20:59N 38°06' W 076°30'3 6.7
2018-Jan-31 20:30N 38°04' W 076°27'3 6.5
2018-Jan-31 19:58N 38°02' W 076°23'  
Track history (hours):
 
Tides and Currents Weather Stations Pressure Air Temp Water Temp Dewpoint Dewpoint Depression Visibility Wind Speed Wind Dir Waves Ship Positions

Fort Pike

Owner: Salisbury Towing Corporation, Chesapeak, VA. More information available from US FCC via Universal Licensing System and Coast Guard Vessel Documentation Center.

Last reported at 2018-Feb-10 05:21 UTC. Time now 2018-Feb-24 10:20 UTC.
Position N 36°50' W 076°17'.
Warning: this ship's position is 14 days out of date.

Length 18 m; draft 2.5 m.

Type: Tug. MMSI: 366948310.

Date/timePositionNaut miles runAvg speedWind from/ knotsBaromVisibWave heightAir tempDewpointWater temp
2018-Feb-10 05:21N 36°50' W 076°17'1 1.5
2018-Feb-10 05:00N 36°50' W 076°17'1 1.6
2018-Feb-10 04:30N 36°50' W 076°16'1 1.1
2018-Feb-10 04:00N 36°50' W 076°17'3 5.5
2018-Feb-10 03:29N 36°52' W 076°20'3 5.8
2018-Feb-10 03:00N 36°55' W 076°20'3 5.6
2018-Feb-10 02:29N 36°58' W 076°20'2 4.9
2018-Feb-10 01:59N 36°60' W 076°18'3 5.2
2018-Feb-10 01:29N 37°01' W 076°15'3 5.0
2018-Feb-10 00:58N 37°03' W 076°13'3 5.6
2018-Feb-10 00:27N 37°05' W 076°12'102 6.0
2018-Feb-09 07:30N 38°47' W 076°27'3 6.1
2018-Feb-09 07:00N 38°50' W 076°27'3 6.1
2018-Feb-09 06:31N 38°53' W 076°26'30 6.0
2018-Feb-09 01:30N 39°21' W 076°10'7 6.8
2018-Feb-09 00:30N 39°24' W 076°03'8 5.1
2018-Feb-08 23:00N 39°32' W 076°05'3 1.0
2018-Feb-08 20:30N 39°34' W 076°06'0 0.1
2018-Feb-08 19:00N 39°34' W 076°06'0 0.1
2018-Feb-08 18:00N 39°34' W 076°06'25 5.5
2018-Feb-08 13:30N 39°13' W 076°21'11 5.5
2018-Feb-08 11:30N 39°16' W 076°35'0 0.0
2018-Feb-08 09:30N 39°16' W 076°35'0 0.0
2018-Feb-08 09:00N 39°16' W 076°35'0 0.0
2018-Feb-08 07:00N 39°16' W 076°35'0 0.0
2018-Feb-08 04:00N 39°16' W 076°35'0 0.0
2018-Feb-08 03:00N 39°16' W 076°35'0 0.0
2018-Feb-08 01:30N 39°16' W 076°35'0 0.0
2018-Feb-08 01:00N 39°16' W 076°35'0 0.0
2018-Feb-08 00:30N 39°16' W 076°35'0 0.0
2018-Feb-08 00:00N 39°16' W 076°35'0 0.0
2018-Feb-07 23:30N 39°16' W 076°35'0 0.0
2018-Feb-07 23:00N 39°16' W 076°35'0 0.0
2018-Feb-07 22:30N 39°16' W 076°35'0 0.1
2018-Feb-07 21:58N 39°15' W 076°35'1 1.8
2018-Feb-07 21:31N 39°15' W 076°36'30 0.8
2018-Feb-06 07:24N 38°46' W 076°28'3 6.3
2018-Feb-06 07:00N 38°48' W 076°27'7 6.5
2018-Feb-06 05:59N 38°54' W 076°25'5 6.5
2018-Feb-06 05:14N 38°59' W 076°23'18 5.7
2018-Feb-06 02:02N 39°16' W 076°14'0 6.4
2018-Feb-06 01:58N 39°16' W 076°14'3 6.1
2018-Feb-06 01:24N 39°19' W 076°12'3 6.3
2018-Feb-06 00:58N 39°21' W 076°09'3 6.6
2018-Feb-06 00:30N 39°23' W 076°06'3 6.4
2018-Feb-06 00:00N 39°24' W 076°03'3 5.8
2018-Feb-05 23:30N 39°27' W 076°02'3 6.0
2018-Feb-05 23:00N 39°30' W 076°05'3 6.3
2018-Feb-05 22:30N 39°33' W 076°05'2 3.6
2018-Feb-05 22:00N 39°34' W 076°06'0 0.3
2018-Feb-05 21:30N 39°34' W 076°06'0 0.0
2018-Feb-05 21:00N 39°34' W 076°06'0 0.0
2018-Feb-05 20:00N 39°34' W 076°06'0 0.0
2018-Feb-05 19:30N 39°34' W 076°06'0 0.0
2018-Feb-05 19:00N 39°34' W 076°06'0 0.0
2018-Feb-05 18:30N 39°34' W 076°06'0 0.0
2018-Feb-05 18:00N 39°34' W 076°06'0 0.0
2018-Feb-05 17:30N 39°34' W 076°06'0 0.1
2018-Feb-05 17:00N 39°34' W 076°06'0 0.0
2018-Feb-05 16:30N 39°34' W 076°06'0 0.0
2018-Feb-05 16:00N 39°34' W 076°06'0 0.0
2018-Feb-05 15:30N 39°34' W 076°06'0 0.0
2018-Feb-05 15:00N 39°34' W 076°06'0 0.0
2018-Feb-05 14:30N 39°34' W 076°06'0 0.0
2018-Feb-05 12:30N 39°34' W 076°06'0 0.0
2018-Feb-05 12:00N 39°34' W 076°06'0 0.0
2018-Feb-05 11:30N 39°34' W 076°06'0 0.0
2018-Feb-05 10:30N 39°34' W 076°06'0 0.0
2018-Feb-05 10:00N 39°34' W 076°06'0 0.0
2018-Feb-05 09:29N 39°34' W 076°06'0 0.0
2018-Feb-05 09:00N 39°34' W 076°06'0 0.0
2018-Feb-05 08:30N 39°34' W 076°06'0 0.0
2018-Feb-05 08:00N 39°34' W 076°06'0 0.0
2018-Feb-05 07:30N 39°34' W 076°06'0 0.0
2018-Feb-05 07:00N 39°34' W 076°06'0 0.0
2018-Feb-05 06:30N 39°34' W 076°06'0 0.0
2018-Feb-05 05:30N 39°34' W 076°06'0 0.0
2018-Feb-05 05:00N 39°34' W 076°06'0 0.0
2018-Feb-05 04:30N 39°34' W 076°06'0 0.0
2018-Feb-05 04:00N 39°34' W 076°06'2 3.9
2018-Feb-05 03:30N 39°33' W 076°05'0 0.5
2018-Feb-05 03:00N 39°33' W 076°04'0 0.0
2018-Feb-05 02:30N 39°33' W 076°04'2 3.5
2018-Feb-05 01:59N 39°31' W 076°05'3 5.4
2018-Feb-05 01:30N 39°29' W 076°04'3 5.8
2018-Feb-05 00:55N 39°25' W 076°03'3 6.0
2018-Feb-05 00:30N 39°23' W 076°05'17 5.4
2018-Feb-04 21:17N 39°13' W 076°22'1 5.1
2018-Feb-04 21:00N 39°12' W 076°24'5 5.2
2018-Feb-04 20:00N 39°12' W 076°30'3 6.3
2018-Feb-04 19:29N 39°14' W 076°33'2 4.2
2018-Feb-04 19:00N 39°16' W 076°35'2 3.1
2018-Feb-04 18:30N 39°15' W 076°34'4 7.5
2018-Feb-04 18:00N 39°12' W 076°30'4 7.4
2018-Feb-04 17:30N 39°10' W 076°26'14 6.9
2018-Feb-04 15:30N 38°57' W 076°23'4 7.6
2018-Feb-04 15:00N 38°53' W 076°24'4 7.7
2018-Feb-04 14:30N 38°49' W 076°25'11 7.2
2018-Feb-04 12:55N 38°38' W 076°20'9 1.9
2018-Feb-04 08:17N 38°46' W 076°26'2 7.2
2018-Feb-04 08:01N 38°48' W 076°26'4 7.2
2018-Feb-04 07:30N 38°52' W 076°25'4 7.4
2018-Feb-04 07:00N 38°55' W 076°25'4 7.6
2018-Feb-04 06:25N 38°59' W 076°23'4 9.1
2018-Feb-04 06:01N 39°03' W 076°23'5 9.2
2018-Feb-04 05:30N 39°08' W 076°24'4 8.8
2018-Feb-04 05:00N 39°11' W 076°28'5 8.9
2018-Feb-04 04:30N 39°14' W 076°32'3 5.5
2018-Feb-04 04:00N 39°15' W 076°35'4 7.8
2018-Feb-04 03:30N 39°13' W 076°31'4 7.9
2018-Feb-04 03:00N 39°11' W 076°27'4 8.0
2018-Feb-04 02:30N 39°08' W 076°24'4 8.6
2018-Feb-04 02:00N 39°03' W 076°23'5 8.8
2018-Feb-04 01:29N 38°59' W 076°23'5 9.4
2018-Feb-04 01:00N 38°54' W 076°24'5 9.2
2018-Feb-04 00:30N 38°50' W 076°25'4 0.4
2018-Feb-03 14:27N 38°45' W 076°25'3 6.8
2018-Feb-03 14:00N 38°48' W 076°26'3 6.5
2018-Feb-03 13:30N 38°52' W 076°25'3 6.3
2018-Feb-03 13:00N 38°55' W 076°25'4 6.1
2018-Feb-03 12:16N 38°59' W 076°23'16 6.0
2018-Feb-03 09:35N 39°14' W 076°15'2 7.1
2018-Feb-03 09:17N 39°16' W 076°14'2 7.2
2018-Feb-03 08:57N 39°18' W 076°13'3 7.3
2018-Feb-03 08:30N 39°21' W 076°10'4 7.4
2018-Feb-03 08:00N 39°23' W 076°06'7 4.8
2018-Feb-03 06:30N 39°30' W 076°05'3 6.3
2018-Feb-03 06:00N 39°33' W 076°05'1 3.0
2018-Feb-03 05:30N 39°34' W 076°06'0 0.0
2018-Feb-03 05:00N 39°34' W 076°06'0 0.1
2018-Feb-03 04:00N 39°34' W 076°06'2 4.0
2018-Feb-03 03:31N 39°33' W 076°05'10 6.4
2018-Feb-03 02:00N 39°23' W 076°05'16 8.1
2018-Feb-03 00:03N 39°13' W 076°21'0 8.0
2018-Feb-03 00:00N 39°13' W 076°21'4 7.9
2018-Feb-02 23:30N 39°11' W 076°25'4 7.4
2018-Feb-02 23:00N 39°12' W 076°30'4 7.9
2018-Feb-02 22:30N 39°15' W 076°34'1 2.7
2018-Feb-02 22:00N 39°16' W 076°35'0 0.0
2018-Feb-02 21:30N 39°16' W 076°35'0 0.0
2018-Feb-02 21:00N 39°16' W 076°35'0 0.0
2018-Feb-02 20:31N 39°16' W 076°35'0 0.0
2018-Feb-02 20:00N 39°16' W 076°35'0 0.0
2018-Feb-02 19:00N 39°16' W 076°35'0 0.0
2018-Feb-02 18:30N 39°16' W 076°35'0 0.0
2018-Feb-02 18:00N 39°16' W 076°35'0 0.0
2018-Feb-02 17:30N 39°16' W 076°35'0 0.0
2018-Feb-02 17:00N 39°16' W 076°35'0 0.1
2018-Feb-02 16:30N 39°16' W 076°35'0 0.0
2018-Feb-02 15:30N 39°16' W 076°35'0 0.0
2018-Feb-02 14:30N 39°16' W 076°35'2 4.4
2018-Feb-02 13:59N 39°14' W 076°33'1 0.4
2018-Feb-02 11:52N 39°14' W 076°34'1 4.2
2018-Feb-02 11:30N 39°15' W 076°34'1 1.9
2018-Feb-02 11:00N 39°16' W 076°35'0 0.0
2018-Feb-02 10:30N 39°16' W 076°35'0 0.0
2018-Feb-02 10:00N 39°16' W 076°35'0 0.0
2018-Feb-02 09:29N 39°16' W 076°35'0 0.1
2018-Feb-02 09:00N 39°16' W 076°35'0 0.0
2018-Feb-02 08:30N 39°16' W 076°35'0 0.0
2018-Feb-02 08:00N 39°16' W 076°35'0 0.0
2018-Feb-02 07:30N 39°16' W 076°35'2 3.9
2018-Feb-02 06:57N 39°14' W 076°33'3 7.7
2018-Feb-02 06:30N 39°12' W 076°30'4 7.5
2018-Feb-02 06:00N 39°10' W 076°26'3 6.7
2018-Feb-02 05:29N 39°07' W 076°24'3 6.6
2018-Feb-02 04:58N 39°03' W 076°23'3 6.2
2018-Feb-02 04:30N 39°00' W 076°22'3 6.6
2018-Feb-02 04:00N 38°57' W 076°23'4 7.3
2018-Feb-02 03:31N 38°54' W 076°24'4 7.6
2018-Feb-02 03:00N 38°50' W 076°26'4 7.8
2018-Feb-02 02:28N 38°46' W 076°27'41 1.4
2018-Jan-31 20:59N 38°06' W 076°30'3 6.7
2018-Jan-31 20:30N 38°04' W 076°27'3 6.5
2018-Jan-31 19:58N 38°02' W 076°23'  

Dump ship's entire track history